CheckWX is a tool to help pilots better visualize weather data.  It is not intended as a substitute for an official pre-flight weather briefing.

10:05:24 UTC

KENW TAF
Kenosha Regional Airport
Kenosha, Wisconsin, USA
KENW 140908Z 1409/1506 VRB02KT 1/4SM FZFG OVC002 FM141200 VRB03KT 3SM BR OVC007 FM141600 30009G15KT P6SM OVC010 FM142000 30010G17KT P6SM OVC027 FM142200 30010G17KT P6SM OVC050

Dec-14@
09:00 UTC

Dec-14 @ 09:00 UTC

Dec-14@
12:00 UTC

Dec-14 @ 12:00 UTC

KENW 140908Z 1409/1506 VRB02KT 1/4SM FZFG OVC002
Wind
  • Variable at 2 KTS
Conditions
Freezing Fog
Cloud Levels
  • Overcast at 200' AGL

Dec-14@
12:00 UTC

Dec-14 @ 12:00 UTC

Dec-14@
16:00 UTC

Dec-14 @ 16:00 UTC

FM141200 VRB03KT 3SM BR OVC007

From

From Standard forecast or significant change

Wind
  • Variable at 3 KTS
Conditions
Mist
Cloud Levels
  • Overcast at 700' AGL

Dec-14@
16:00 UTC

Dec-14 @ 16:00 UTC

Dec-14@
20:00 UTC

Dec-14 @ 20:00 UTC

FM141600 30009G15KT P6SM OVC010

From

From Standard forecast or significant change

Wind
  • 300° at 9 KTS
  • {Gusting to 15 KTS
Cloud Levels
  • Overcast at 1,000' AGL

Dec-14@
20:00 UTC

Dec-14 @ 20:00 UTC

Dec-14@
22:00 UTC

Dec-14 @ 22:00 UTC

FM142000 30010G17KT P6SM OVC027

From

From Standard forecast or significant change

Wind
  • 300° at 10 KTS
  • {Gusting to 17 KTS
Cloud Levels
  • Overcast at 2,700' AGL

Dec-14@
22:00 UTC

Dec-14 @ 22:00 UTC

Dec-15@
06:00 UTC

Dec-15 @ 06:00 UTC

FM142200 30010G17KT P6SM OVC050

From

From Standard forecast or significant change

Wind
  • 300° at 10 KTS
  • {Gusting to 17 KTS
Cloud Levels
  • Overcast at 5,000' AGL